sensor_id;sensor_type;location;lat;lon;timestamp;P1;durP1;ratioP1;P2;durP2;ratioP2
7833;SDS011;3962;42.696;23.354;2023-09-08T00:01:59;6.90;;;6.60;;
7833;SDS011;3962;42.696;23.354;2023-09-08T00:04:26;7.23;;;6.93;;
7833;SDS011;3962;42.696;23.354;2023-09-08T00:06:54;6.27;;;6.07;;
7833;SDS011;3962;42.696;23.354;2023-09-08T00:09:21;6.37;;;6.10;;
7833;SDS011;3962;42.696;23.354;2023-09-08T00:11:48;7.33;;;7.03;;
7833;SDS011;3962;42.696;23.354;2023-09-08T00:14:14;6.60;;;6.30;;
7833;SDS011;3962;42.696;23.354;2023-09-08T00:16:41;7.03;;;6.73;;
7833;SDS011;3962;42.696;23.354;2023-09-08T00:19:08;6.63;;;6.37;;
7833;SDS011;3962;42.696;23.354;2023-09-08T00:21:36;6.93;;;6.63;;
7833;SDS011;3962;42.696;23.354;2023-09-08T00:24:05;8.00;;;7.60;;
7833;SDS011;3962;42.696;23.354;2023-09-08T00:26:32;6.30;;;6.10;;
7833;SDS011;3962;42.696;23.354;2023-09-08T00:28:59;6.33;;;6.13;;
7833;SDS011;3962;42.696;23.354;2023-09-08T00:31:26;6.93;;;6.63;;
7833;SDS011;3962;42.696;23.354;2023-09-08T00:33:53;6.40;;;6.20;;
7833;SDS011;3962;42.696;23.354;2023-09-08T00:36:19;5.80;;;5.60;;
7833;SDS011;3962;42.696;23.354;2023-09-08T00:38:46;6.33;;;6.13;;
7833;SDS011;3962;42.696;23.354;2023-09-08T00:41:16;6.17;;;5.97;;
7833;SDS011;3962;42.696;23.354;2023-09-08T00:43:51;7.10;;;6.80;;
7833;SDS011;3962;42.696;23.354;2023-09-08T00:46:18;6.07;;;5.87;;
7833;SDS011;3962;42.696;23.354;2023-09-08T00:48:45;7.03;;;6.73;;
7833;SDS011;3962;42.696;23.354;2023-09-08T00:51:12;5.83;;;5.63;;
7833;SDS011;3962;42.696;23.354;2023-09-08T00:53:39;7.17;;;6.87;;
7833;SDS011;3962;42.696;23.354;2023-09-08T00:56:06;6.20;;;6.00;;
7833;SDS011;3962;42.696;23.354;2023-09-08T00:58:36;6.97;;;6.67;;
7833;SDS011;3962;42.696;23.354;2023-09-08T01:01:03;6.00;;;5.80;;
7833;SDS011;3962;42.696;23.354;2023-09-08T01:03:30;5.43;;;5.23;;
7833;SDS011;3962;42.696;23.354;2023-09-08T01:05:57;6.17;;;5.97;;
7833;SDS011;3962;42.696;23.354;2023-09-08T01:08:24;5.37;;;5.17;;
7833;SDS011;3962;42.696;23.354;2023-09-08T01:10:52;5.70;;;5.50;;
7833;SDS011;3962;42.696;23.354;2023-09-08T01:13:19;5.80;;;5.60;;
7833;SDS011;3962;42.696;23.354;2023-09-08T01:15:47;5.83;;;5.63;;
7833;SDS011;3962;42.696;23.354;2023-09-08T01:18:14;5.70;;;5.50;;
7833;SDS011;3962;42.696;23.354;2023-09-08T01:20:47;6.20;;;6.00;;
7833;SDS011;3962;42.696;23.354;2023-09-08T01:23:34;6.13;;;5.93;;
7833;SDS011;3962;42.696;23.354;2023-09-08T01:26:14;6.37;;;6.17;;
7833;SDS011;3962;42.696;23.354;2023-09-08T01:28:43;6.93;;;6.63;;
7833;SDS011;3962;42.696;23.354;2023-09-08T01:31:15;8.30;;;7.90;;
7833;SDS011;3962;42.696;23.354;2023-09-08T01:33:42;7.33;;;7.03;;
7833;SDS011;3962;42.696;23.354;2023-09-08T01:36:10;5.90;;;5.70;;
7833;SDS011;3962;42.696;23.354;2023-09-08T01:38:37;7.43;;;7.07;;
7833;SDS011;3962;42.696;23.354;2023-09-08T01:41:04;5.73;;;5.53;;
7833;SDS011;3962;42.696;23.354;2023-09-08T01:43:32;6.77;;;6.47;;
7833;SDS011;3962;42.696;23.354;2023-09-08T01:45:59;6.03;;;5.83;;
7833;SDS011;3962;42.696;23.354;2023-09-08T01:48:26;6.97;;;6.67;;
7833;SDS011;3962;42.696;23.354;2023-09-08T01:50:53;6.07;;;5.87;;
7833;SDS011;3962;42.696;23.354;2023-09-08T01:53:19;7.50;;;7.20;;
7833;SDS011;3962;42.696;23.354;2023-09-08T01:55:46;7.10;;;6.80;;
7833;SDS011;3962;42.696;23.354;2023-09-08T01:58:13;6.60;;;6.30;;
7833;SDS011;3962;42.696;23.354;2023-09-08T02:03:49;6.90;;;6.60;;
7833;SDS011;3962;42.696;23.354;2023-09-08T02:06:16;6.50;;;6.20;;
7833;SDS011;3962;42.696;23.354;2023-09-08T02:08:42;6.53;;;6.23;;
7833;SDS011;3962;42.696;23.354;2023-09-08T02:11:09;5.33;;;5.13;;
7833;SDS011;3962;42.696;23.354;2023-09-08T02:13:36;7.10;;;6.80;;
7833;SDS011;3962;42.696;23.354;2023-09-08T02:16:03;6.80;;;6.50;;
7833;SDS011;3962;42.696;23.354;2023-09-08T02:18:31;7.00;;;6.70;;
7833;SDS011;3962;42.696;23.354;2023-09-08T02:20:58;6.23;;;5.93;;
7833;SDS011;3962;42.696;23.354;2023-09-08T02:23:25;7.00;;;6.70;;
7833;SDS011;3962;42.696;23.354;2023-09-08T02:25:51;5.77;;;5.57;;
7833;SDS011;3962;42.696;23.354;2023-09-08T02:28:18;6.33;;;6.13;;
7833;SDS011;3962;42.696;23.354;2023-09-08T02:30:45;5.67;;;5.47;;
7833;SDS011;3962;42.696;23.354;2023-09-08T02:33:12;6.73;;;6.43;;
7833;SDS011;3962;42.696;23.354;2023-09-08T02:35:40;7.17;;;6.87;;
7833;SDS011;3962;42.696;23.354;2023-09-08T02:38:07;7.40;;;7.10;;
7833;SDS011;3962;42.696;23.354;2023-09-08T02:40:34;7.40;;;7.10;;
7833;SDS011;3962;42.696;23.354;2023-09-08T02:43:00;6.00;;;5.80;;
7833;SDS011;3962;42.696;23.354;2023-09-08T02:45:27;6.90;;;6.60;;
7833;SDS011;3962;42.696;23.354;2023-09-08T02:47:54;6.53;;;6.27;;
7833;SDS011;3962;42.696;23.354;2023-09-08T02:50:21;5.73;;;5.53;;
7833;SDS011;3962;42.696;23.354;2023-09-08T02:52:50;6.30;;;6.03;;
7833;SDS011;3962;42.696;23.354;2023-09-08T02:55:17;6.33;;;6.13;;
7833;SDS011;3962;42.696;23.354;2023-09-08T02:57:44;6.67;;;6.37;;
7833;SDS011;3962;42.696;23.354;2023-09-08T03:00:11;8.47;;;7.97;;
7833;SDS011;3962;42.696;23.354;2023-09-08T03:02:38;7.50;;;7.20;;
7833;SDS011;3962;42.696;23.354;2023-09-08T03:05:05;6.60;;;6.30;;
7833;SDS011;3962;42.696;23.354;2023-09-08T03:07:33;7.67;;;7.37;;
7833;SDS011;3962;42.696;23.354;2023-09-08T03:10:04;6.40;;;6.10;;
7833;SDS011;3962;42.696;23.354;2023-09-08T03:12:32;5.97;;;5.77;;
7833;SDS011;3962;42.696;23.354;2023-09-08T03:15:00;6.93;;;6.63;;
7833;SDS011;3962;42.696;23.354;2023-09-08T03:17:27;7.27;;;6.97;;
7833;SDS011;3962;42.696;23.354;2023-09-08T03:19:54;6.07;;;5.87;;
7833;SDS011;3962;42.696;23.354;2023-09-08T03:22:21;7.50;;;7.13;;
7833;SDS011;3962;42.696;23.354;2023-09-08T03:24:49;6.83;;;6.53;;
7833;SDS011;3962;42.696;23.354;2023-09-08T03:27:18;7.03;;;6.73;;
7833;SDS011;3962;42.696;23.354;2023-09-08T03:29:45;7.67;;;7.37;;
7833;SDS011;3962;42.696;23.354;2023-09-08T03:32:12;6.50;;;6.20;;
7833;SDS011;3962;42.696;23.354;2023-09-08T03:34:39;6.60;;;6.30;;
7833;SDS011;3962;42.696;23.354;2023-09-08T03:37:05;6.77;;;6.47;;
7833;SDS011;3962;42.696;23.354;2023-09-08T03:39:32;7.07;;;6.77;;
7833;SDS011;3962;42.696;23.354;2023-09-08T03:41:59;6.67;;;6.37;;
7833;SDS011;3962;42.696;23.354;2023-09-08T03:44:28;6.33;;;6.03;;
7833;SDS011;3962;42.696;23.354;2023-09-08T03:46:55;7.50;;;7.20;;
7833;SDS011;3962;42.696;23.354;2023-09-08T03:49:22;7.07;;;6.77;;
7833;SDS011;3962;42.696;23.354;2023-09-08T03:51:49;7.20;;;6.90;;
7833;SDS011;3962;42.696;23.354;2023-09-08T03:54:15;6.87;;;6.57;;
7833;SDS011;3962;42.696;23.354;2023-09-08T03:56:42;6.67;;;6.37;;
7833;SDS011;3962;42.696;23.354;2023-09-08T03:59:09;6.30;;;6.00;;
7833;SDS011;3962;42.696;23.354;2023-09-08T04:01:37;7.90;;;7.60;;
7833;SDS011;3962;42.696;23.354;2023-09-08T04:04:04;6.70;;;6.40;;
7833;SDS011;3962;42.696;23.354;2023-09-08T04:06:31;6.30;;;6.00;;
7833;SDS011;3962;42.696;23.354;2023-09-08T04:08:57;8.37;;;7.87;;
7833;SDS011;3962;42.696;23.354;2023-09-08T04:11:24;7.13;;;6.83;;
7833;SDS011;3962;42.696;23.354;2023-09-08T04:13:51;7.77;;;7.37;;
7833;SDS011;3962;42.696;23.354;2023-09-08T04:16:18;7.73;;;7.43;;
7833;SDS011;3962;42.696;23.354;2023-09-08T04:18:46;7.43;;;7.13;;
7833;SDS011;3962;42.696;23.354;2023-09-08T04:21:13;8.17;;;7.77;;
7833;SDS011;3962;42.696;23.354;2023-09-08T04:23:40;7.37;;;6.97;;
7833;SDS011;3962;42.696;23.354;2023-09-08T04:26:06;7.27;;;6.87;;
7833;SDS011;3962;42.696;23.354;2023-09-08T04:28:33;8.10;;;7.70;;
7833;SDS011;3962;42.696;23.354;2023-09-08T04:31:00;7.10;;;6.73;;
7833;SDS011;3962;42.696;23.354;2023-09-08T04:33:27;7.13;;;6.83;;
7833;SDS011;3962;42.696;23.354;2023-09-08T04:35:55;7.80;;;7.43;;
7833;SDS011;3962;42.696;23.354;2023-09-08T04:38:22;7.80;;;7.40;;
7833;SDS011;3962;42.696;23.354;2023-09-08T04:40:49;8.37;;;7.97;;
7833;SDS011;3962;42.696;23.354;2023-09-08T04:43:16;6.83;;;6.53;;
7833;SDS011;3962;42.696;23.354;2023-09-08T04:45:42;6.53;;;6.23;;
7833;SDS011;3962;42.696;23.354;2023-09-08T04:48:09;7.93;;;7.53;;
7833;SDS011;3962;42.696;23.354;2023-09-08T04:50:36;7.10;;;6.70;;
7833;SDS011;3962;42.696;23.354;2023-09-08T04:53:04;6.57;;;6.27;;
7833;SDS011;3962;42.696;23.354;2023-09-08T04:55:31;6.93;;;6.53;;
7833;SDS011;3962;42.696;23.354;2023-09-08T04:57:58;7.60;;;7.20;;
7833;SDS011;3962;42.696;23.354;2023-09-08T05:00:24;6.40;;;6.10;;
7833;SDS011;3962;42.696;23.354;2023-09-08T05:02:51;7.43;;;7.13;;
7833;SDS011;3962;42.696;23.354;2023-09-08T05:05:18;7.03;;;6.73;;
7833;SDS011;3962;42.696;23.354;2023-09-08T05:07:45;6.03;;;5.73;;
7833;SDS011;3962;42.696;23.354;2023-09-08T05:10:14;6.77;;;6.37;;
7833;SDS011;3962;42.696;23.354;2023-09-08T05:12:41;6.33;;;6.03;;
7833;SDS011;3962;42.696;23.354;2023-09-08T05:15:08;6.20;;;5.97;;
7833;SDS011;3962;42.696;23.354;2023-09-08T05:17:40;5.60;;;5.40;;
7833;SDS011;3962;42.696;23.354;2023-09-08T05:20:07;6.10;;;5.80;;
7833;SDS011;3962;42.696;23.354;2023-09-08T05:22:34;6.77;;;6.47;;
7833;SDS011;3962;42.696;23.354;2023-09-08T05:25:01;5.73;;;5.43;;
7833;SDS011;3962;42.696;23.354;2023-09-08T05:27:32;5.47;;;5.17;;
7833;SDS011;3962;42.696;23.354;2023-09-08T05:29:59;7.03;;;6.73;;
7833;SDS011;3962;42.696;23.354;2023-09-08T05:32:26;6.60;;;6.30;;
7833;SDS011;3962;42.696;23.354;2023-09-08T05:34:53;6.90;;;6.50;;
7833;SDS011;3962;42.696;23.354;2023-09-08T05:37:20;6.73;;;6.43;;
7833;SDS011;3962;42.696;23.354;2023-09-08T05:39:46;6.63;;;6.33;;
7833;SDS011;3962;42.696;23.354;2023-09-08T05:42:13;6.53;;;6.23;;
7833;SDS011;3962;42.696;23.354;2023-09-08T05:44:41;6.57;;;6.27;;
7833;SDS011;3962;42.696;23.354;2023-09-08T05:47:08;7.23;;;6.93;;
7833;SDS011;3962;42.696;23.354;2023-09-08T05:49:35;5.37;;;5.17;;
7833;SDS011;3962;42.696;23.354;2023-09-08T05:52:01;5.60;;;5.40;;
7833;SDS011;3962;42.696;23.354;2023-09-08T05:54:28;6.10;;;5.80;;
7833;SDS011;3962;42.696;23.354;2023-09-08T05:56:55;6.37;;;6.07;;
7833;SDS011;3962;42.696;23.354;2023-09-08T05:59:22;5.93;;;5.70;;
7833;SDS011;3962;42.696;23.354;2023-09-08T06:01:50;7.00;;;6.60;;
7833;SDS011;3962;42.696;23.354;2023-09-08T06:04:17;5.63;;;5.37;;
7833;SDS011;3962;42.696;23.354;2023-09-08T06:06:44;6.13;;;5.83;;
7833;SDS011;3962;42.696;23.354;2023-09-08T06:09:10;8.33;;;7.93;;
7833;SDS011;3962;42.696;23.354;2023-09-08T06:11:39;6.87;;;6.57;;
7833;SDS011;3962;42.696;23.354;2023-09-08T06:14:06;6.20;;;6.00;;
7833;SDS011;3962;42.696;23.354;2023-09-08T06:16:33;6.40;;;6.07;;
7833;SDS011;3962;42.696;23.354;2023-09-08T06:19:02;6.27;;;5.97;;
7833;SDS011;3962;42.696;23.354;2023-09-08T06:21:29;5.60;;;5.40;;
7833;SDS011;3962;42.696;23.354;2023-09-08T06:23:56;6.43;;;6.13;;
7833;SDS011;3962;42.696;23.354;2023-09-08T06:26:23;7.87;;;7.47;;
7833;SDS011;3962;42.696;23.354;2023-09-08T06:28:50;5.80;;;5.60;;
7833;SDS011;3962;42.696;23.354;2023-09-08T06:31:16;5.43;;;5.17;;
7833;SDS011;3962;42.696;23.354;2023-09-08T06:33:43;5.87;;;5.67;;
7833;SDS011;3962;42.696;23.354;2023-09-08T06:36:11;5.73;;;5.43;;
7833;SDS011;3962;42.696;23.354;2023-09-08T06:38:38;6.17;;;5.87;;
7833;SDS011;3962;42.696;23.354;2023-09-08T06:41:08;5.90;;;5.60;;
7833;SDS011;3962;42.696;23.354;2023-09-08T06:43:35;5.60;;;5.33;;
7833;SDS011;3962;42.696;23.354;2023-09-08T06:46:02;5.60;;;5.37;;
7833;SDS011;3962;42.696;23.354;2023-09-08T06:48:29;6.43;;;6.13;;
7833;SDS011;3962;42.696;23.354;2023-09-08T06:50:56;5.80;;;5.60;;
7833;SDS011;3962;42.696;23.354;2023-09-08T06:53:25;5.50;;;5.30;;
7833;SDS011;3962;42.696;23.354;2023-09-08T06:55:52;5.20;;;5.00;;
7833;SDS011;3962;42.696;23.354;2023-09-08T06:58:19;5.40;;;5.20;;
7833;SDS011;3962;42.696;23.354;2023-09-08T07:00:46;5.27;;;5.07;;
7833;SDS011;3962;42.696;23.354;2023-09-08T07:03:14;5.90;;;5.60;;
7833;SDS011;3962;42.696;23.354;2023-09-08T07:05:41;5.53;;;5.30;;
7833;SDS011;3962;42.696;23.354;2023-09-08T07:08:08;6.13;;;5.93;;
7833;SDS011;3962;42.696;23.354;2023-09-08T07:10:39;6.37;;;6.07;;
7833;SDS011;3962;42.696;23.354;2023-09-08T07:13:06;5.23;;;5.03;;
7833;SDS011;3962;42.696;23.354;2023-09-08T07:15:32;5.13;;;4.93;;
7833;SDS011;3962;42.696;23.354;2023-09-08T07:17:59;5.13;;;4.93;;
7833;SDS011;3962;42.696;23.354;2023-09-08T07:20:26;5.13;;;4.93;;
7833;SDS011;3962;42.696;23.354;2023-09-08T07:22:55;5.60;;;5.40;;
7833;SDS011;3962;42.696;23.354;2023-09-08T07:25:22;6.20;;;5.93;;
7833;SDS011;3962;42.696;23.354;2023-09-08T07:27:50;4.40;;;4.20;;
7833;SDS011;3962;42.696;23.354;2023-09-08T07:30:18;5.27;;;5.07;;
7833;SDS011;3962;42.696;23.354;2023-09-08T07:32:45;5.07;;;4.87;;
7833;SDS011;3962;42.696;23.354;2023-09-08T07:35:12;4.77;;;4.57;;
7833;SDS011;3962;42.696;23.354;2023-09-08T07:37:41;4.87;;;4.63;;
7833;SDS011;3962;42.696;23.354;2023-09-08T07:40:09;4.57;;;4.37;;
7833;SDS011;3962;42.696;23.354;2023-09-08T07:42:36;4.43;;;4.23;;
7833;SDS011;3962;42.696;23.354;2023-09-08T07:45:05;4.67;;;4.47;;
7833;SDS011;3962;42.696;23.354;2023-09-08T07:47:34;4.47;;;4.27;;
7833;SDS011;3962;42.696;23.354;2023-09-08T07:50:16;4.97;;;4.77;;
7833;SDS011;3962;42.696;23.354;2023-09-08T07:52:44;4.40;;;4.20;;
7833;SDS011;3962;42.696;23.354;2023-09-08T07:55:16;4.33;;;4.13;;
7833;SDS011;3962;42.696;23.354;2023-09-08T07:57:44;4.73;;;4.53;;
7833;SDS011;3962;42.696;23.354;2023-09-08T08:00:14;4.70;;;4.50;;
7833;SDS011;3962;42.696;23.354;2023-09-08T08:02:43;4.27;;;4.07;;
7833;SDS011;3962;42.696;23.354;2023-09-08T08:05:11;4.30;;;4.10;;
7833;SDS011;3962;42.696;23.354;2023-09-08T08:07:39;4.47;;;4.27;;
7833;SDS011;3962;42.696;23.354;2023-09-08T08:10:06;4.17;;;4.00;;
7833;SDS011;3962;42.696;23.354;2023-09-08T08:12:33;4.37;;;4.17;;
7833;SDS011;3962;42.696;23.354;2023-09-08T08:15:01;4.43;;;4.23;;
7833;SDS011;3962;42.696;23.354;2023-09-08T08:17:29;4.87;;;4.67;;
7833;SDS011;3962;42.696;23.354;2023-09-08T08:19:56;4.60;;;4.40;;
7833;SDS011;3962;42.696;23.354;2023-09-08T08:22:24;4.53;;;4.33;;
7833;SDS011;3962;42.696;23.354;2023-09-08T08:24:51;4.60;;;4.40;;
7833;SDS011;3962;42.696;23.354;2023-09-08T08:27:18;5.00;;;4.80;;
7833;SDS011;3962;42.696;23.354;2023-09-08T08:29:45;4.53;;;4.33;;
7833;SDS011;3962;42.696;23.354;2023-09-08T08:32:12;4.93;;;4.73;;
7833;SDS011;3962;42.696;23.354;2023-09-08T08:34:40;5.57;;;5.37;;
7833;SDS011;3962;42.696;23.354;2023-09-08T08:37:07;4.90;;;4.60;;
7833;SDS011;3962;42.696;23.354;2023-09-08T08:39:34;5.57;;;5.37;;
7833;SDS011;3962;42.696;23.354;2023-09-08T08:42:06;4.73;;;4.53;;
7833;SDS011;3962;42.696;23.354;2023-09-08T08:44:33;5.47;;;5.27;;
7833;SDS011;3962;42.696;23.354;2023-09-08T08:47:01;5.37;;;5.17;;
7833;SDS011;3962;42.696;23.354;2023-09-08T08:49:29;5.07;;;4.87;;
7833;SDS011;3962;42.696;23.354;2023-09-08T08:51:59;4.80;;;4.60;;
7833;SDS011;3962;42.696;23.354;2023-09-08T08:54:32;4.70;;;4.50;;
7833;SDS011;3962;42.696;23.354;2023-09-08T08:57:00;4.47;;;4.27;;
7833;SDS011;3962;42.696;23.354;2023-09-08T08:59:27;4.03;;;3.87;;
7833;SDS011;3962;42.696;23.354;2023-09-08T09:01:54;4.90;;;4.70;;
7833;SDS011;3962;42.696;23.354;2023-09-08T09:04:22;4.87;;;4.67;;
7833;SDS011;3962;42.696;23.354;2023-09-08T09:06:50;4.83;;;4.63;;
7833;SDS011;3962;42.696;23.354;2023-09-08T09:09:18;4.73;;;4.53;;
7833;SDS011;3962;42.696;23.354;2023-09-08T09:11:45;4.90;;;4.70;;
7833;SDS011;3962;42.696;23.354;2023-09-08T09:14:12;5.00;;;4.80;;
7833;SDS011;3962;42.696;23.354;2023-09-08T09:16:39;4.93;;;4.73;;
7833;SDS011;3962;42.696;23.354;2023-09-08T09:19:07;3.90;;;3.80;;
7833;SDS011;3962;42.696;23.354;2023-09-08T09:21:41;5.00;;;4.80;;
7833;SDS011;3962;42.696;23.354;2023-09-08T09:24:13;5.17;;;4.97;;
7833;SDS011;3962;42.696;23.354;2023-09-08T09:26:42;5.00;;;4.80;;
7833;SDS011;3962;42.696;23.354;2023-09-08T09:29:11;4.93;;;4.73;;
7833;SDS011;3962;42.696;23.354;2023-09-08T09:31:43;4.57;;;4.37;;
7833;SDS011;3962;42.696;23.354;2023-09-08T09:34:17;4.77;;;4.57;;
7833;SDS011;3962;42.696;23.354;2023-09-08T09:36:45;5.03;;;4.83;;
7833;SDS011;3962;42.696;23.354;2023-09-08T09:39:16;4.60;;;4.40;;
7833;SDS011;3962;42.696;23.354;2023-09-08T09:41:47;4.63;;;4.43;;
7833;SDS011;3962;42.696;23.354;2023-09-08T09:44:15;4.80;;;4.60;;
7833;SDS011;3962;42.696;23.354;2023-09-08T09:46:45;5.23;;;4.97;;
7833;SDS011;3962;42.696;23.354;2023-09-08T09:49:13;5.00;;;4.80;;
7833;SDS011;3962;42.696;23.354;2023-09-08T09:51:42;4.50;;;4.30;;
7833;SDS011;3962;42.696;23.354;2023-09-08T09:54:11;4.43;;;4.23;;
7833;SDS011;3962;42.696;23.354;2023-09-08T09:56:41;4.37;;;4.17;;
7833;SDS011;3962;42.696;23.354;2023-09-08T09:59:10;4.60;;;4.40;;
7833;SDS011;3962;42.696;23.354;2023-09-08T10:01:38;4.83;;;4.63;;
7833;SDS011;3962;42.696;23.354;2023-09-08T10:04:07;5.13;;;4.93;;
7833;SDS011;3962;42.696;23.354;2023-09-08T10:06:34;4.90;;;4.60;;
7833;SDS011;3962;42.696;23.354;2023-09-08T10:09:04;5.80;;;5.50;;
7833;SDS011;3962;42.696;23.354;2023-09-08T10:11:40;4.80;;;4.60;;
7833;SDS011;3962;42.696;23.354;2023-09-08T10:14:10;5.17;;;4.97;;
7833;SDS011;3962;42.696;23.354;2023-09-08T10:16:39;4.83;;;4.63;;
7833;SDS011;3962;42.696;23.354;2023-09-08T10:19:07;5.00;;;4.80;;
7833;SDS011;3962;42.696;23.354;2023-09-08T10:21:36;5.27;;;5.07;;
7833;SDS011;3962;42.696;23.354;2023-09-08T10:24:14;4.73;;;4.53;;
7833;SDS011;3962;42.696;23.354;2023-09-08T10:26:50;4.47;;;4.27;;
7833;SDS011;3962;42.696;23.354;2023-09-08T10:29:25;5.43;;;5.23;;
7833;SDS011;3962;42.696;23.354;2023-09-08T10:31:53;4.70;;;4.50;;
7833;SDS011;3962;42.696;23.354;2023-09-08T10:34:22;4.90;;;4.70;;
7833;SDS011;3962;42.696;23.354;2023-09-08T10:36:50;5.53;;;5.33;;
7833;SDS011;3962;42.696;23.354;2023-09-08T10:39:27;4.80;;;4.60;;
7833;SDS011;3962;42.696;23.354;2023-09-08T10:45:00;4.50;;;4.30;;
7833;SDS011;3962;42.696;23.354;2023-09-08T10:47:31;5.17;;;4.97;;
7833;SDS011;3962;42.696;23.354;2023-09-08T10:49:59;5.30;;;5.00;;
7833;SDS011;3962;42.696;23.354;2023-09-08T10:52:26;5.50;;;5.30;;
7833;SDS011;3962;42.696;23.354;2023-09-08T10:54:54;4.97;;;4.77;;
7833;SDS011;3962;42.696;23.354;2023-09-08T10:57:22;5.40;;;5.20;;
7833;SDS011;3962;42.696;23.354;2023-09-08T10:59:51;4.93;;;4.73;;
7833;SDS011;3962;42.696;23.354;2023-09-08T11:02:36;4.60;;;4.40;;
7833;SDS011;3962;42.696;23.354;2023-09-08T11:05:04;4.83;;;4.63;;
7833;SDS011;3962;42.696;23.354;2023-09-08T11:07:35;4.60;;;4.40;;
7833;SDS011;3962;42.696;23.354;2023-09-08T11:10:02;5.03;;;4.83;;
7833;SDS011;3962;42.696;23.354;2023-09-08T11:12:30;5.93;;;5.53;;
7833;SDS011;3962;42.696;23.354;2023-09-08T11:15:03;5.10;;;4.90;;
7833;SDS011;3962;42.696;23.354;2023-09-08T11:17:32;5.00;;;4.80;;
7833;SDS011;3962;42.696;23.354;2023-09-08T11:20:02;4.87;;;4.67;;
7833;SDS011;3962;42.696;23.354;2023-09-08T11:22:33;4.80;;;4.50;;
7833;SDS011;3962;42.696;23.354;2023-09-08T11:25:01;5.13;;;4.93;;
7833;SDS011;3962;42.696;23.354;2023-09-08T11:27:31;5.33;;;4.93;;
7833;SDS011;3962;42.696;23.354;2023-09-08T11:30:02;4.90;;;4.70;;
7833;SDS011;3962;42.696;23.354;2023-09-08T11:32:31;4.43;;;4.23;;
7833;SDS011;3962;42.696;23.354;2023-09-08T11:35:02;4.07;;;3.97;;
7833;SDS011;3962;42.696;23.354;2023-09-08T11:37:34;4.47;;;4.27;;
7833;SDS011;3962;42.696;23.354;2023-09-08T11:40:01;4.97;;;4.67;;
7833;SDS011;3962;42.696;23.354;2023-09-08T11:42:34;4.80;;;4.60;;
7833;SDS011;3962;42.696;23.354;2023-09-08T11:45:09;5.13;;;4.87;;
7833;SDS011;3962;42.696;23.354;2023-09-08T11:47:39;4.80;;;4.60;;
7833;SDS011;3962;42.696;23.354;2023-09-08T11:50:09;4.43;;;4.23;;
7833;SDS011;3962;42.696;23.354;2023-09-08T11:52:41;4.27;;;4.07;;
7833;SDS011;3962;42.696;23.354;2023-09-08T11:55:10;4.23;;;4.03;;
7833;SDS011;3962;42.696;23.354;2023-09-08T11:57:38;5.20;;;5.00;;
7833;SDS011;3962;42.696;23.354;2023-09-08T12:00:06;4.43;;;4.23;;
7833;SDS011;3962;42.696;23.354;2023-09-08T12:02:39;5.17;;;4.97;;
7833;SDS011;3962;42.696;23.354;2023-09-08T12:05:12;5.07;;;4.87;;
7833;SDS011;3962;42.696;23.354;2023-09-08T12:07:39;4.43;;;4.23;;
7833;SDS011;3962;42.696;23.354;2023-09-08T12:10:08;4.97;;;4.77;;
7833;SDS011;3962;42.696;23.354;2023-09-08T12:12:42;4.67;;;4.47;;
7833;SDS011;3962;42.696;23.354;2023-09-08T12:15:10;4.63;;;4.43;;
7833;SDS011;3962;42.696;23.354;2023-09-08T12:17:46;4.90;;;4.70;;
7833;SDS011;3962;42.696;23.354;2023-09-08T12:20:16;4.87;;;4.67;;
7833;SDS011;3962;42.696;23.354;2023-09-08T12:22:50;4.00;;;3.90;;
7833;SDS011;3962;42.696;23.354;2023-09-08T12:25:20;4.40;;;4.20;;
7833;SDS011;3962;42.696;23.354;2023-09-08T12:27:49;4.37;;;4.17;;
7833;SDS011;3962;42.696;23.354;2023-09-08T12:30:17;4.40;;;4.20;;
7833;SDS011;3962;42.696;23.354;2023-09-08T12:32:45;4.63;;;4.33;;
7833;SDS011;3962;42.696;23.354;2023-09-08T12:35:19;4.63;;;4.43;;
7833;SDS011;3962;42.696;23.354;2023-09-08T12:37:56;4.53;;;4.33;;
7833;SDS011;3962;42.696;23.354;2023-09-08T12:40:25;4.40;;;4.20;;
7833;SDS011;3962;42.696;23.354;2023-09-08T12:42:55;5.00;;;4.80;;
7833;SDS011;3962;42.696;23.354;2023-09-08T12:45:23;5.17;;;4.97;;
7833;SDS011;3962;42.696;23.354;2023-09-08T12:47:51;4.87;;;4.67;;
7833;SDS011;3962;42.696;23.354;2023-09-08T12:50:21;5.37;;;5.17;;
7833;SDS011;3962;42.696;23.354;2023-09-08T12:52:48;4.90;;;4.70;;
7833;SDS011;3962;42.696;23.354;2023-09-08T12:55:15;4.40;;;4.20;;
7833;SDS011;3962;42.696;23.354;2023-09-08T12:57:44;5.13;;;4.93;;
7833;SDS011;3962;42.696;23.354;2023-09-08T13:00:12;4.53;;;4.33;;
7833;SDS011;3962;42.696;23.354;2023-09-08T13:02:39;4.97;;;4.70;;
7833;SDS011;3962;42.696;23.354;2023-09-08T13:05:07;4.33;;;4.13;;
7833;SDS011;3962;42.696;23.354;2023-09-08T13:07:35;5.53;;;5.23;;
7833;SDS011;3962;42.696;23.354;2023-09-08T13:10:02;4.53;;;4.33;;
7833;SDS011;3962;42.696;23.354;2023-09-08T13:12:29;4.10;;;4.00;;
7833;SDS011;3962;42.696;23.354;2023-09-08T13:14:56;4.50;;;4.30;;
7833;SDS011;3962;42.696;23.354;2023-09-08T13:17:28;4.17;;;4.07;;
7833;SDS011;3962;42.696;23.354;2023-09-08T13:19:55;4.70;;;4.50;;
7833;SDS011;3962;42.696;23.354;2023-09-08T13:22:22;5.00;;;4.80;;
7833;SDS011;3962;42.696;23.354;2023-09-08T13:24:50;4.03;;;3.93;;
7833;SDS011;3962;42.696;23.354;2023-09-08T13:27:17;4.70;;;4.50;;
7833;SDS011;3962;42.696;23.354;2023-09-08T13:29:44;4.60;;;4.40;;
7833;SDS011;3962;42.696;23.354;2023-09-08T13:32:14;4.97;;;4.77;;
7833;SDS011;3962;42.696;23.354;2023-09-08T13:34:43;3.97;;;3.87;;
7833;SDS011;3962;42.696;23.354;2023-09-08T13:37:12;4.97;;;4.77;;
7833;SDS011;3962;42.696;23.354;2023-09-08T13:39:40;4.93;;;4.73;;
7833;SDS011;3962;42.696;23.354;2023-09-08T13:42:10;4.27;;;4.10;;
7833;SDS011;3962;42.696;23.354;2023-09-08T13:44:37;3.97;;;3.87;;
7833;SDS011;3962;42.696;23.354;2023-09-08T13:47:04;4.47;;;4.27;;
7833;SDS011;3962;42.696;23.354;2023-09-08T13:49:31;4.50;;;4.30;;
7833;SDS011;3962;42.696;23.354;2023-09-08T13:51:58;4.57;;;4.37;;
7833;SDS011;3962;42.696;23.354;2023-09-08T13:54:25;4.07;;;3.97;;
7833;SDS011;3962;42.696;23.354;2023-09-08T13:56:57;4.10;;;4.00;;
7833;SDS011;3962;42.696;23.354;2023-09-08T13:59:27;4.70;;;4.50;;
7833;SDS011;3962;42.696;23.354;2023-09-08T14:01:55;4.43;;;4.23;;
7833;SDS011;3962;42.696;23.354;2023-09-08T14:04:24;4.60;;;4.40;;
7833;SDS011;3962;42.696;23.354;2023-09-08T14:06:51;5.03;;;4.83;;
7833;SDS011;3962;42.696;23.354;2023-09-08T14:09:17;4.80;;;4.60;;
7833;SDS011;3962;42.696;23.354;2023-09-08T14:11:44;4.70;;;4.50;;
7833;SDS011;3962;42.696;23.354;2023-09-08T14:14:11;5.27;;;4.97;;
7833;SDS011;3962;42.696;23.354;2023-09-08T14:16:39;4.63;;;4.43;;
7833;SDS011;3962;42.696;23.354;2023-09-08T14:19:06;4.23;;;4.03;;
7833;SDS011;3962;42.696;23.354;2023-09-08T14:21:33;3.90;;;3.70;;
7833;SDS011;3962;42.696;23.354;2023-09-08T14:24:02;4.47;;;4.27;;
7833;SDS011;3962;42.696;23.354;2023-09-08T14:26:29;4.50;;;4.20;;
7833;SDS011;3962;42.696;23.354;2023-09-08T14:28:56;4.83;;;4.63;;
7833;SDS011;3962;42.696;23.354;2023-09-08T14:31:23;5.03;;;4.83;;
7833;SDS011;3962;42.696;23.354;2023-09-08T14:33:51;4.50;;;4.30;;
7833;SDS011;3962;42.696;23.354;2023-09-08T14:36:18;5.10;;;4.90;;
7833;SDS011;3962;42.696;23.354;2023-09-08T14:38:45;5.03;;;4.80;;
7833;SDS011;3962;42.696;23.354;2023-09-08T14:41:12;4.83;;;4.63;;
7833;SDS011;3962;42.696;23.354;2023-09-08T14:43:39;5.80;;;5.40;;
7833;SDS011;3962;42.696;23.354;2023-09-08T14:46:06;6.70;;;6.20;;
7833;SDS011;3962;42.696;23.354;2023-09-08T14:48:33;4.80;;;4.60;;
7833;SDS011;3962;42.696;23.354;2023-09-08T14:51:02;4.77;;;4.57;;
7833;SDS011;3962;42.696;23.354;2023-09-08T14:53:29;4.80;;;4.60;;
7833;SDS011;3962;42.696;23.354;2023-09-08T14:55:57;5.17;;;4.97;;
7833;SDS011;3962;42.696;23.354;2023-09-08T14:58:24;4.87;;;4.67;;
7833;SDS011;3962;42.696;23.354;2023-09-08T15:00:57;4.83;;;4.63;;
7833;SDS011;3962;42.696;23.354;2023-09-08T15:03:25;4.43;;;4.23;;
7833;SDS011;3962;42.696;23.354;2023-09-08T15:05:51;5.10;;;4.90;;
7833;SDS011;3962;42.696;23.354;2023-09-08T15:08:20;5.10;;;4.90;;
7833;SDS011;3962;42.696;23.354;2023-09-08T15:10:46;4.57;;;4.37;;
7833;SDS011;3962;42.696;23.354;2023-09-08T15:13:13;5.37;;;5.17;;